Time;durP1;ratioP1;P1;durP2;ratioP2;P2;SDS_P1;SDS_P2;PMS_P1;PMS_P2;Temp;Humidity;BMP_temperature;BMP_pressure;BME280_temperature;BME280_humidity;BME280_pressure;Samples;Min_cycle;Max_cycle;Signal;HPM_P1;HPM_P2
2022/03/12 00:02:01;;;;;;;8.50;3.50;;;;;;;;;;5061442;28;20089;-67
2022/03/12 00:04:26;;;;;;;9.60;4.10;;;;;;;;;;5054057;28;20682;-66
2022/03/12 00:06:53;;;;;;;9.80;4.07;;;;;;;;;;5048630;28;20063;-66
2022/03/12 00:09:18;;;;;;;9.40;4.10;;;;;;;;;;5055079;28;20021;-66
2022/03/12 00:11:51;;;;;;;8.80;3.70;;;;;;;;;;5053880;28;20040;-67
2022/03/12 00:14:22;;;;;;;8.57;3.97;;;;;;;;;;5047605;28;20033;-67
2022/03/12 00:16:48;;;;;;;9.75;3.92;;;;;;;;;;5054291;28;20032;-66
2022/03/12 00:19:14;;;;;;;8.13;4.10;;;;;;;;;;5054668;28;20025;-67
2022/03/12 00:21:43;;;;;;;7.60;3.63;;;;;;;;;;5060912;28;20035;-66
2022/03/12 00:24:12;;;;;;;8.27;4.00;;;;;;;;;;5060941;28;20102;-67
2022/03/12 00:26:40;;;;;;;9.03;3.57;;;;;;;;;;5070931;28;20380;-66
2022/03/12 00:29:05;;;;;;;9.93;4.30;;;;;;;;;;5066346;28;20012;-67
2022/03/12 00:31:33;;;;;;;16.57;4.60;;;;;;;;;;5073923;28;20031;-67
2022/03/12 00:33:58;;;;;;;6.53;3.23;;;;;;;;;;5049559;28;20030;-66
2022/03/12 00:36:23;;;;;;;13.37;4.13;;;;;;;;;;5054573;28;20025;-66
2022/03/12 00:38:49;;;;;;;8.13;3.60;;;;;;;;;;5060891;28;20020;-66
2022/03/12 00:41:16;;;;;;;9.03;4.20;;;;;;;;;;5065646;28;20032;-67
2022/03/12 00:43:41;;;;;;;11.70;3.93;;;;;;;;;;5070613;28;20035;-67
2022/03/12 00:46:06;;;;;;;13.60;3.83;;;;;;;;;;5063116;28;20111;-67
2022/03/12 00:48:32;;;;;;;8.90;3.57;;;;;;;;;;5058312;28;20484;-66
2022/03/12 00:50:58;;;;;;;13.37;4.07;;;;;;;;;;5047936;28;20456;-67
2022/03/12 00:53:23;;;;;;;9.97;4.03;;;;;;;;;;5041490;28;20033;-67
2022/03/12 00:55:48;;;;;;;7.03;3.57;;;;;;;;;;5066573;28;20063;-67
2022/03/12 00:58:14;;;;;;;8.60;3.87;;;;;;;;;;5072161;28;20035;-66
2022/03/12 01:00:39;;;;;;;9.03;4.03;;;;;;;;;;5067748;28;20067;-66
2022/03/12 01:03:04;;;;;;;10.77;3.50;;;;;;;;;;5049824;28;20358;-66
2022/03/12 01:05:59;;;;;;;10.00;4.60;;;;;;;;;;5043756;28;20084;-67
2022/03/12 01:08:24;;;;;;;9.70;3.63;;;;;;;;;;4972178;28;20113;-66
2022/03/12 01:10:50;;;;;;;12.73;4.93;;;;;;;;;;4980408;28;20118;-66
2022/03/12 01:13:15;;;;;;;9.37;4.20;;;;;;;;;;4980665;28;20061;-66
2022/03/12 01:15:41;;;;;;;11.60;5.27;;;;;;;;;;4964636;28;20034;-67
2022/03/12 01:18:09;;;;;;;8.07;3.43;;;;;;;;;;4977408;28;20038;-67
2022/03/12 01:20:35;;;;;;;9.87;3.97;;;;;;;;;;4968209;28;20072;-67
2022/03/12 01:23:00;;;;;;;10.47;4.67;;;;;;;;;;4980037;28;20019;-66
2022/03/12 01:25:27;;;;;;;8.27;3.43;;;;;;;;;;4979581;28;20188;-66
2022/03/12 01:27:52;;;;;;;10.00;3.97;;;;;;;;;;4978494;28;20632;-67
2022/03/12 01:30:24;;;;;;;8.77;3.77;;;;;;;;;;4967665;28;20055;-66
2022/03/12 01:32:50;;;;;;;9.57;3.90;;;;;;;;;;4975542;28;20042;-66
2022/03/12 01:35:15;;;;;;;9.07;4.20;;;;;;;;;;4970205;28;20031;-66
2022/03/12 01:37:40;;;;;;;9.33;3.83;;;;;;;;;;4978917;28;20034;-67
2022/03/12 01:40:06;;;;;;;9.13;4.10;;;;;;;;;;4967586;28;20470;-67
2022/03/12 01:42:31;;;;;;;7.13;3.47;;;;;;;;;;4975858;28;20567;-67
2022/03/12 01:44:56;;;;;;;8.60;3.87;;;;;;;;;;4999357;28;20048;-67
2022/03/12 01:47:22;;;;;;;8.53;4.00;;;;;;;;;;5038708;28;20061;-67
2022/03/12 01:49:47;;;;;;;7.70;2.90;;;;;;;;;;5039862;28;20028;-66
2022/03/12 01:52:13;;;;;;;9.57;3.50;;;;;;;;;;5040300;28;20024;-67
2022/03/12 01:54:40;;;;;;;9.23;4.07;;;;;;;;;;5031833;28;20025;-66
2022/03/12 01:57:06;;;;;;;11.33;4.20;;;;;;;;;;5040295;28;20409;-66
2022/03/12 01:59:32;;;;;;;8.97;3.97;;;;;;;;;;5025604;28;20036;-66
2022/03/12 02:01:58;;;;;;;12.23;3.73;;;;;;;;;;5057337;23;20039;-67
2022/03/12 02:04:23;;;;;;;8.20;3.67;;;;;;;;;;5071272;28;20027;-68
2022/03/12 02:06:51;;;;;;;9.07;3.80;;;;;;;;;;5081655;28;20060;-68
2022/03/12 02:09:17;;;;;;;8.33;3.67;;;;;;;;;;5081174;28;20111;-68
2022/03/12 02:11:43;;;;;;;10.40;3.93;;;;;;;;;;5080738;28;20115;-68
2022/03/12 02:14:08;;;;;;;10.73;4.07;;;;;;;;;;5081168;28;20028;-68
2022/03/12 02:16:34;;;;;;;8.43;3.60;;;;;;;;;;5078601;28;20094;-68
2022/03/12 02:18:59;;;;;;;9.53;3.93;;;;;;;;;;5080155;28;20596;-68
2022/03/12 02:21:34;;;;;;;8.63;3.70;;;;;;;;;;5081301;28;20052;-68
2022/03/12 02:23:59;;;;;;;8.73;3.63;;;;;;;;;;5080813;28;20016;-68
2022/03/12 02:26:24;;;;;;;6.50;3.17;;;;;;;;;;5081712;28;20032;-68
2022/03/12 02:28:49;;;;;;;6.83;3.47;;;;;;;;;;5089085;28;20107;-68
2022/03/12 02:31:15;;;;;;;8.47;3.50;;;;;;;;;;5081258;28;20032;-68
2022/03/12 02:33:41;;;;;;;11.63;3.73;;;;;;;;;;5080757;28;20032;-68
2022/03/12 02:36:07;;;;;;;10.13;4.43;;;;;;;;;;5079019;28;20074;-68
2022/03/12 02:38:35;;;;;;;10.80;3.87;;;;;;;;;;5079831;28;20375;-68
2022/03/12 02:41:10;;;;;;;9.93;3.30;;;;;;;;;;5081255;28;20028;-68
2022/03/12 02:43:37;;;;;;;10.30;3.10;;;;;;;;;;5081213;28;20032;-68
2022/03/12 02:46:02;;;;;;;7.20;3.27;;;;;;;;;;5081141;28;20598;-68
2022/03/12 02:48:27;;;;;;;8.63;3.63;;;;;;;;;;5080947;28;20032;-68
2022/03/12 02:50:53;;;;;;;7.00;3.13;;;;;;;;;;5080933;28;20436;-67
2022/03/12 02:53:19;;;;;;;9.37;3.67;;;;;;;;;;5063969;28;20032;-68
2022/03/12 02:55:45;;;;;;;9.47;4.03;;;;;;;;;;5080938;28;20044;-68
2022/03/12 02:58:14;;;;;;;7.53;3.67;;;;;;;;;;5080587;28;20048;-68
2022/03/12 03:00:39;;;;;;;7.67;3.30;;;;;;;;;;5081003;28;20082;-68
2022/03/12 03:03:06;;;;;;;8.93;3.93;;;;;;;;;;5080759;28;20484;-68
2022/03/12 03:05:41;;;;;;;8.67;3.37;;;;;;;;;;5080653;28;20056;-68
2022/03/12 03:08:07;;;;;;;7.80;3.27;;;;;;;;;;5081236;28;20028;-68
2022/03/12 03:10:36;;;;;;;9.03;3.60;;;;;;;;;;5080751;28;20055;-68
2022/03/12 03:13:16;;;;;;;8.23;2.97;;;;;;;;;;5081062;28;20032;-68
2022/03/12 03:15:47;;;;;;;8.97;3.07;;;;;;;;;;5080398;28;20032;-68
2022/03/12 03:18:13;;;;;;;8.75;3.78;;;;;;;;;;5080750;28;20122;-68
2022/03/12 03:20:39;;;;;;;6.93;2.93;;;;;;;;;;5080513;28;20103;-68
2022/03/12 03:23:05;;;;;;;7.90;3.13;;;;;;;;;;5080505;28;20444;-68
2022/03/12 03:25:31;;;;;;;9.13;3.60;;;;;;;;;;5083555;28;20153;-68
2022/03/12 03:27:56;;;;;;;9.20;3.50;;;;;;;;;;5084431;28;20054;-68
2022/03/12 03:30:21;;;;;;;7.63;3.60;;;;;;;;;;5083946;28;20043;-68
2022/03/12 03:32:46;;;;;;;8.67;3.63;;;;;;;;;;5078209;28;20028;-68
2022/03/12 03:35:12;;;;;;;7.60;2.93;;;;;;;;;;5082328;28;20656;-68
2022/03/12 03:37:37;;;;;;;9.00;3.30;;;;;;;;;;5083548;28;20661;-68
2022/03/12 03:40:03;;;;;;;10.53;4.47;;;;;;;;;;5083608;28;20028;-68
2022/03/12 03:42:28;;;;;;;6.97;3.00;;;;;;;;;;5084266;28;20063;-68
2022/03/12 03:44:59;;;;;;;9.67;3.70;;;;;;;;;;5083629;28;20028;-68
2022/03/12 03:47:25;;;;;;;7.72;3.22;;;;;;;;;;5077584;28;20031;-68
2022/03/12 03:49:50;;;;;;;9.57;3.63;;;;;;;;;;5083292;28;20032;-68
2022/03/12 03:52:15;;;;;;;11.10;3.77;;;;;;;;;;5083556;28;20030;-68
2022/03/12 03:54:42;;;;;;;10.40;3.80;;;;;;;;;;5084344;28;20139;-68
2022/03/12 03:57:10;;;;;;;7.97;3.50;;;;;;;;;;5086476;28;20420;-68
2022/03/12 03:59:35;;;;;;;11.23;3.60;;;;;;;;;;5086458;28;20032;-68
2022/03/12 04:02:00;;;;;;;9.17;3.43;;;;;;;;;;5086323;28;20039;-68
2022/03/12 04:04:28;;;;;;;9.17;3.70;;;;;;;;;;5085917;28;20044;-68
2022/03/12 04:06:54;;;;;;;7.33;2.50;;;;;;;;;;5086143;28;20024;-68
2022/03/12 04:09:19;;;;;;;8.73;3.60;;;;;;;;;;5083228;28;20023;-68
2022/03/12 04:11:44;;;;;;;9.80;3.90;;;;;;;;;;5083381;28;20034;-68
2022/03/12 04:14:10;;;;;;;8.03;3.20;;;;;;;;;;5083210;28;20095;-68
2022/03/12 04:16:36;;;;;;;8.93;3.57;;;;;;;;;;5082651;28;20020;-68
2022/03/12 04:19:05;;;;;;;12.13;4.10;;;;;;;;;;5081939;28;20024;-68
2022/03/12 04:21:31;;;;;;;9.33;3.47;;;;;;;;;;5080652;28;20065;-68
2022/03/12 04:23:56;;;;;;;7.50;2.83;;;;;;;;;;5068111;28;20024;-68
2022/03/12 04:26:21;;;;;;;8.20;3.30;;;;;;;;;;5078517;28;20036;-68
2022/03/12 04:28:46;;;;;;;8.43;3.60;;;;;;;;;;5082957;28;20028;-68
2022/03/12 04:31:13;;;;;;;8.00;3.47;;;;;;;;;;5083022;28;20035;-68
2022/03/12 04:33:39;;;;;;;5.40;3.00;;;;;;;;;;5082000;28;20024;-69
2022/03/12 04:36:04;;;;;;;7.80;3.10;;;;;;;;;;5081775;28;20051;-68
2022/03/12 04:38:29;;;;;;;5.87;3.07;;;;;;;;;;5082844;28;20091;-68
2022/03/12 04:40:55;;;;;;;8.83;3.00;;;;;;;;;;5079795;28;20400;-68
2022/03/12 04:43:21;;;;;;;9.37;3.40;;;;;;;;;;5076741;28;20035;-68
2022/03/12 04:45:47;;;;;;;15.50;3.17;;;;;;;;;;5082380;28;20035;-68
2022/03/12 04:48:21;;;;;;;8.07;3.53;;;;;;;;;;5082118;28;20672;-68
2022/03/12 04:50:47;;;;;;;7.50;3.30;;;;;;;;;;5082184;28;20036;-68
2022/03/12 04:53:12;;;;;;;6.80;2.73;;;;;;;;;;5082461;28;20464;-68
2022/03/12 04:55:38;;;;;;;6.93;3.60;;;;;;;;;;5082091;28;20035;-68
2022/03/12 04:58:04;;;;;;;7.93;3.60;;;;;;;;;;5093582;28;20620;-68
2022/03/12 05:00:30;;;;;;;8.87;3.87;;;;;;;;;;5088026;28;20099;-68
2022/03/12 05:03:03;;;;;;;9.63;3.00;;;;;;;;;;5082899;28;20188;-68
2022/03/12 05:05:28;;;;;;;9.13;3.70;;;;;;;;;;5082284;28;20040;-68
2022/03/12 05:07:58;;;;;;;9.23;2.93;;;;;;;;;;5082391;28;20430;-69
2022/03/12 05:10:27;;;;;;;6.73;3.10;;;;;;;;;;5082191;28;20499;-68
2022/03/12 05:12:59;;;;;;;5.93;2.97;;;;;;;;;;5075454;28;20427;-68
2022/03/12 05:15:25;;;;;;;8.63;3.57;;;;;;;;;;5079397;28;20798;-68
2022/03/12 05:17:51;;;;;;;8.77;3.80;;;;;;;;;;5081506;28;20028;-68
2022/03/12 05:20:19;;;;;;;7.47;3.13;;;;;;;;;;5080636;28;20020;-68
2022/03/12 05:22:45;;;;;;;8.93;3.60;;;;;;;;;;5081497;28;20027;-68
2022/03/12 05:25:10;;;;;;;11.97;3.10;;;;;;;;;;5081748;28;20101;-68
2022/03/12 05:27:36;;;;;;;7.43;2.87;;;;;;;;;;5081752;28;20115;-68
2022/03/12 05:30:01;;;;;;;6.57;3.00;;;;;;;;;;5081412;28;20032;-68
2022/03/12 05:32:26;;;;;;;6.37;2.80;;;;;;;;;;5081398;28;20064;-68
2022/03/12 05:34:52;;;;;;;7.80;3.33;;;;;;;;;;5081135;28;20541;-68
2022/03/12 05:37:17;;;;;;;7.47;3.17;;;;;;;;;;5081999;28;20476;-68
2022/03/12 05:39:42;;;;;;;5.73;2.47;;;;;;;;;;5081684;28;20048;-68
2022/03/12 05:42:08;;;;;;;8.10;3.57;;;;;;;;;;5081262;28;20028;-67
2022/03/12 05:44:34;;;;;;;9.70;3.77;;;;;;;;;;5081623;28;20454;-68
2022/03/12 05:46:59;;;;;;;8.27;3.47;;;;;;;;;;5079356;28;20030;-68
2022/03/12 05:49:25;;;;;;;6.17;3.03;;;;;;;;;;5098638;28;20036;-68
2022/03/12 05:51:50;;;;;;;7.53;3.37;;;;;;;;;;5091942;28;20047;-68
2022/03/12 05:54:16;;;;;;;8.13;3.00;;;;;;;;;;5077712;28;20059;-68
2022/03/12 05:56:41;;;;;;;6.97;3.00;;;;;;;;;;5081220;28;20035;-68
2022/03/12 05:59:07;;;;;;;10.43;3.43;;;;;;;;;;5081178;28;20020;-69
2022/03/12 06:01:33;;;;;;;8.00;3.13;;;;;;;;;;5080757;28;20020;-69
2022/03/12 06:04:00;;;;;;;8.27;3.03;;;;;;;;;;5080579;28;20055;-69
2022/03/12 06:06:27;;;;;;;7.57;3.00;;;;;;;;;;5079888;28;20523;-69
2022/03/12 06:08:53;;;;;;;7.93;3.30;;;;;;;;;;5079263;28;20505;-69
2022/03/12 06:11:19;;;;;;;8.20;3.10;;;;;;;;;;5081284;28;20048;-69
2022/03/12 06:13:50;;;;;;;8.37;3.63;;;;;;;;;;5092204;28;20036;-68
2022/03/12 06:16:15;;;;;;;8.18;3.72;;;;;;;;;;5081016;28;20522;-69
2022/03/12 06:18:41;;;;;;;7.10;3.40;;;;;;;;;;5080838;28;20040;-68
2022/03/12 06:21:06;;;;;;;7.33;3.10;;;;;;;;;;5081308;28;20056;-68
2022/03/12 06:23:32;;;;;;;8.10;3.07;;;;;;;;;;5078299;28;20016;-68
2022/03/12 06:25:57;;;;;;;7.20;3.00;;;;;;;;;;5081007;28;20023;-68
2022/03/12 06:28:23;;;;;;;7.93;3.30;;;;;;;;;;5080305;28;20095;-68
2022/03/12 06:30:52;;;;;;;6.77;2.83;;;;;;;;;;5079861;28;20405;-68
2022/03/12 06:33:18;;;;;;;8.63;3.30;;;;;;;;;;5077171;28;20032;-68
2022/03/12 06:35:43;;;;;;;7.63;3.30;;;;;;;;;;5079631;28;20035;-68
2022/03/12 06:38:10;;;;;;;9.10;3.20;;;;;;;;;;5080369;28;20024;-68
2022/03/12 06:40:35;;;;;;;7.77;3.27;;;;;;;;;;5078074;28;20026;-68
2022/03/12 06:43:07;;;;;;;23.13;8.07;;;;;;;;;;5081102;28;20099;-68
2022/03/12 06:45:32;;;;;;;12.35;5.22;;;;;;;;;;5081452;28;20031;-68
2022/03/12 06:47:58;;;;;;;8.43;3.40;;;;;;;;;;5078903;28;20024;-68
2022/03/12 06:50:24;;;;;;;8.87;3.30;;;;;;;;;;5085523;28;20027;-68
2022/03/12 06:52:50;;;;;;;6.63;3.03;;;;;;;;;;5080955;28;20028;-68
2022/03/12 06:55:17;;;;;;;21.40;8.27;;;;;;;;;;5083376;28;20088;-68
2022/03/12 06:57:43;;;;;;;20.53;10.37;;;;;;;;;;5083494;28;20017;-67
2022/03/12 07:00:11;;;;;;;8.00;3.43;;;;;;;;;;5081921;28;20092;-68
2022/03/12 07:02:37;;;;;;;6.47;3.10;;;;;;;;;;5081402;28;20044;-68
2022/03/12 07:05:02;;;;;;;16.40;4.20;;;;;;;;;;5083822;28;20054;-68
2022/03/12 07:07:27;;;;;;;7.60;3.37;;;;;;;;;;5084565;28;20024;-68
2022/03/12 07:09:52;;;;;;;10.33;3.00;;;;;;;;;;5084684;28;20055;-68
2022/03/12 07:12:18;;;;;;;8.27;3.33;;;;;;;;;;5085234;28;20103;-68
2022/03/12 07:14:43;;;;;;;6.93;3.53;;;;;;;;;;5084798;28;20043;-68
2022/03/12 07:17:08;;;;;;;6.60;2.87;;;;;;;;;;5084826;28;20604;-68
2022/03/12 07:19:34;;;;;;;7.63;3.23;;;;;;;;;;5084472;28;20464;-68
2022/03/12 07:21:59;;;;;;;8.30;3.43;;;;;;;;;;5084605;28;20661;-68
2022/03/12 07:24:25;;;;;;;6.23;3.00;;;;;;;;;;5084275;28;20097;-68
2022/03/12 07:26:50;;;;;;;6.83;2.90;;;;;;;;;;5084600;28;20396;-68
2022/03/12 07:29:15;;;;;;;7.67;3.67;;;;;;;;;;5084151;28;20063;-68
2022/03/12 07:31:40;;;;;;;7.23;3.37;;;;;;;;;;5084763;28;20024;-68
2022/03/12 07:34:07;;;;;;;8.63;2.93;;;;;;;;;;5084250;28;20801;-68
2022/03/12 07:36:32;;;;;;;11.73;3.27;;;;;;;;;;5084116;28;20024;-67
2022/03/12 07:39:03;;;;;;;6.57;2.77;;;;;;;;;;5084265;28;20030;-67
2022/03/12 07:41:28;;;;;;;7.43;3.33;;;;;;;;;;5084561;28;20040;-68
2022/03/12 07:43:53;;;;;;;5.57;2.83;;;;;;;;;;5084255;28;20538;-68
2022/03/12 07:46:21;;;;;;;7.43;3.50;;;;;;;;;;5083992;28;20081;-68
2022/03/12 07:48:46;;;;;;;9.13;3.57;;;;;;;;;;5083279;28;20051;-68
2022/03/12 07:51:13;;;;;;;5.77;2.47;;;;;;;;;;5084066;28;20786;-68
2022/03/12 07:53:38;;;;;;;9.50;3.03;;;;;;;;;;5084011;28;20110;-68
2022/03/12 07:56:04;;;;;;;9.10;2.77;;;;;;;;;;5084069;28;20107;-68
2022/03/12 07:58:29;;;;;;;7.43;2.50;;;;;;;;;;5083365;28;20119;-68
2022/03/12 08:00:56;;;;;;;9.57;2.93;;;;;;;;;;5083895;28;20099;-68
2022/03/12 08:03:23;;;;;;;11.70;3.30;;;;;;;;;;5083673;28;20070;-68
2022/03/12 08:05:48;;;;;;;6.90;3.00;;;;;;;;;;5063830;28;20492;-68
2022/03/12 08:08:13;;;;;;;5.50;2.40;;;;;;;;;;5063901;28;20100;-68
2022/03/12 08:13:22;;;;;;;6.93;2.97;;;;;;;;;;5083588;28;20093;-69
2022/03/12 08:15:49;;;;;;;21.40;3.43;;;;;;;;;;5063624;28;20032;-68
2022/03/12 08:18:14;;;;;;;9.10;2.97;;;;;;;;;;5063568;28;20020;-69
2022/03/12 08:20:40;;;;;;;5.27;2.60;;;;;;;;;;5082562;28;20533;-69
2022/03/12 08:23:08;;;;;;;5.03;2.20;;;;;;;;;;5083466;28;20051;-69
2022/03/12 08:25:33;;;;;;;6.83;2.47;;;;;;;;;;5083435;28;20020;-68
2022/03/12 08:27:58;;;;;;;5.63;2.20;;;;;;;;;;5083137;28;20669;-68
2022/03/12 08:30:24;;;;;;;7.43;3.20;;;;;;;;;;5083042;28;20099;-68
2022/03/12 08:32:50;;;;;;;6.67;2.93;;;;;;;;;;5083169;28;20403;-68
2022/03/12 08:35:16;;;;;;;8.53;3.33;;;;;;;;;;5082787;28;20024;-69
2022/03/12 08:37:41;;;;;;;9.97;3.27;;;;;;;;;;5083195;28;20024;-69
2022/03/12 08:40:07;;;;;;;5.67;2.27;;;;;;;;;;5083113;28;20024;-69
2022/03/12 08:42:33;;;;;;;5.90;2.87;;;;;;;;;;5083030;28;20589;-68
2022/03/12 08:44:58;;;;;;;7.17;2.87;;;;;;;;;;5082842;28;20149;-68
2022/03/12 08:47:24;;;;;;;6.63;2.90;;;;;;;;;;5082639;28;20028;-68
2022/03/12 08:49:49;;;;;;;9.30;3.20;;;;;;;;;;5082671;28;20027;-69
2022/03/12 08:52:14;;;;;;;7.63;3.43;;;;;;;;;;5083077;28;20676;-69
2022/03/12 08:54:40;;;;;;;9.27;3.50;;;;;;;;;;5082854;28;20031;-69
2022/03/12 08:57:05;;;;;;;7.70;2.83;;;;;;;;;;5082796;28;20021;-69
2022/03/12 08:59:30;;;;;;;9.60;3.13;;;;;;;;;;5082366;28;20020;-69
2022/03/12 09:01:55;;;;;;;8.53;3.23;;;;;;;;;;5082490;28;20032;-69
2022/03/12 09:04:22;;;;;;;6.77;3.23;;;;;;;;;;5082795;28;20032;-69
2022/03/12 09:06:48;;;;;;;6.07;2.40;;;;;;;;;;5082711;28;20034;-69
2022/03/12 09:09:13;;;;;;;9.00;3.17;;;;;;;;;;5082543;28;20100;-69
2022/03/12 09:11:39;;;;;;;6.27;3.03;;;;;;;;;;5082747;28;20024;-69
2022/03/12 09:14:04;;;;;;;9.80;2.97;;;;;;;;;;5082634;28;20518;-69
2022/03/12 09:16:36;;;;;;;7.73;2.57;;;;;;;;;;5082629;28;20051;-69
2022/03/12 09:19:01;;;;;;;8.43;3.47;;;;;;;;;;5082290;28;20056;-69
2022/03/12 09:21:26;;;;;;;7.70;3.07;;;;;;;;;;5081793;28;20024;-69
2022/03/12 09:23:52;;;;;;;8.57;3.40;;;;;;;;;;5082108;28;20102;-69
2022/03/12 09:26:21;;;;;;;7.13;3.20;;;;;;;;;;5082443;28;20024;-69
2022/03/12 09:28:47;;;;;;;7.67;3.37;;;;;;;;;;5081331;28;20381;-69
2022/03/12 09:31:12;;;;;;;8.47;3.97;;;;;;;;;;5078978;28;20078;-69
2022/03/12 09:33:38;;;;;;;7.23;3.20;;;;;;;;;;5080521;28;20050;-69
2022/03/12 09:36:03;;;;;;;10.27;3.10;;;;;;;;;;5081888;28;20032;-69
2022/03/12 09:38:29;;;;;;;12.30;3.70;;;;;;;;;;5081875;28;20586;-69
2022/03/12 09:40:54;;;;;;;12.20;3.77;;;;;;;;;;5080270;28;20032;-69
2022/03/12 09:43:19;;;;;;;8.70;3.67;;;;;;;;;;5081723;28;20088;-69
2022/03/12 09:45:45;;;;;;;8.33;3.57;;;;;;;;;;5081259;28;20546;-69
2022/03/12 09:48:10;;;;;;;7.57;3.73;;;;;;;;;;5082073;28;20158;-69
2022/03/12 09:50:36;;;;;;;13.27;4.17;;;;;;;;;;5081366;28;20027;-69
2022/03/12 09:53:01;;;;;;;8.93;3.97;;;;;;;;;;5081473;28;20032;-69
2022/03/12 09:55:26;;;;;;;9.70;3.60;;;;;;;;;;5081242;28;20032;-69
2022/03/12 09:57:52;;;;;;;9.73;3.80;;;;;;;;;;5081262;28;20407;-69
2022/03/12 10:00:18;;;;;;;8.60;3.70;;;;;;;;;;5080751;28;20095;-69
2022/03/12 10:02:43;;;;;;;8.23;3.30;;;;;;;;;;5081406;28;20036;-69
2022/03/12 10:05:13;;;;;;;9.03;3.87;;;;;;;;;;5081161;28;20054;-69
2022/03/12 10:07:39;;;;;;;8.97;3.80;;;;;;;;;;5080645;28;20034;-69
2022/03/12 10:10:04;;;;;;;10.33;3.80;;;;;;;;;;5081206;28;20472;-69
2022/03/12 10:12:30;;;;;;;12.33;4.33;;;;;;;;;;5074767;28;20102;-69
2022/03/12 10:14:55;;;;;;;11.33;3.97;;;;;;;;;;5074499;28;20040;-69
2022/03/12 10:17:21;;;;;;;8.97;3.53;;;;;;;;;;5081926;28;20087;-69
2022/03/12 10:19:47;;;;;;;11.23;4.20;;;;;;;;;;5081078;28;20069;-69
2022/03/12 10:22:12;;;;;;;8.70;4.07;;;;;;;;;;5081670;28;20024;-69
2022/03/12 10:24:38;;;;;;;7.70;4.00;;;;;;;;;;5081444;28;20035;-69
2022/03/12 10:27:04;;;;;;;9.33;4.37;;;;;;;;;;5081471;28;20032;-69
2022/03/12 10:29:30;;;;;;;9.40;4.03;;;;;;;;;;5081247;28;20051;-69
2022/03/12 10:31:56;;;;;;;8.97;3.77;;;;;;;;;;5080823;28;20419;-69
2022/03/12 10:34:25;;;;;;;9.80;4.53;;;;;;;;;;5084149;28;20070;-69
2022/03/12 10:36:55;;;;;;;8.13;4.03;;;;;;;;;;5083594;28;20020;-69
2022/03/12 10:39:33;;;;;;;10.93;4.20;;;;;;;;;;5084667;28;20024;-69
2022/03/12 10:41:59;;;;;;;6.93;3.13;;;;;;;;;;5084398;28;20028;-69
2022/03/12 10:44:31;;;;;;;7.67;3.77;;;;;;;;;;5084135;28;20740;-69
2022/03/12 10:46:57;;;;;;;7.40;3.70;;;;;;;;;;5079410;28;20027;-69
2022/03/12 10:49:23;;;;;;;8.23;3.63;;;;;;;;;;5077164;28;20033;-69
2022/03/12 10:51:49;;;;;;;11.60;4.60;;;;;;;;;;5065040;28;20443;-69
2022/03/12 10:54:15;;;;;;;9.30;3.70;;;;;;;;;;5072167;28;20107;-69
2022/03/12 10:56:43;;;;;;;7.47;3.37;;;;;;;;;;5085077;28;20027;-69
2022/03/12 10:59:26;;;;;;;8.97;3.90;;;;;;;;;;5085127;28;20024;-69
2022/03/12 11:01:53;;;;;;;8.00;3.80;;;;;;;;;;5084437;28;20015;-69
2022/03/12 11:04:21;;;;;;;10.53;4.13;;;;;;;;;;5085191;28;20097;-69
2022/03/12 11:06:46;;;;;;;10.30;3.87;;;;;;;;;;5085403;28;20032;-69
2022/03/12 11:09:15;;;;;;;8.67;3.97;;;;;;;;;;5084565;28;20776;-69
2022/03/12 11:11:45;;;;;;;9.07;4.10;;;;;;;;;;5084712;28;20023;-69
2022/03/12 11:14:15;;;;;;;9.47;4.50;;;;;;;;;;5081436;28;20430;-69
2022/03/12 11:16:40;;;;;;;8.60;4.07;;;;;;;;;;5083697;28;20146;-69
2022/03/12 11:19:07;;;;;;;10.20;4.57;;;;;;;;;;5083910;28;20059;-69
2022/03/12 11:21:37;;;;;;;9.10;3.90;;;;;;;;;;5080255;28;20023;-69
2022/03/12 11:24:23;;;;;;;7.27;3.30;;;;;;;;;;5083612;28;20039;-69
2022/03/12 11:26:49;;;;;;;7.07;3.23;;;;;;;;;;4981646;28;20049;-69
2022/03/12 11:29:15;;;;;;;7.70;3.37;;;;;;;;;;4988179;28;20444;-69
2022/03/12 11:32:05;;;;;;;7.30;3.40;;;;;;;;;;4981827;28;20038;-69
2022/03/12 11:34:36;;;;;;;9.83;3.83;;;;;;;;;;4961497;28;20027;-69
2022/03/12 11:37:04;;;;;;;9.30;4.03;;;;;;;;;;4962625;28;20113;-68
2022/03/12 11:39:37;;;;;;;9.77;4.07;;;;;;;;;;4962457;28;20669;-68
2022/03/12 11:42:15;;;;;;;9.80;4.03;;;;;;;;;;4948328;28;20064;-68
2022/03/12 11:44:45;;;;;;;7.60;3.63;;;;;;;;;;4958966;28;20045;-69
2022/03/12 11:47:11;;;;;;;8.93;3.93;;;;;;;;;;4962502;28;20502;-68
2022/03/12 11:49:36;;;;;;;14.10;4.53;;;;;;;;;;4961395;28;20030;-68
2022/03/12 11:52:03;;;;;;;10.77;4.40;;;;;;;;;;4962243;28;20118;-69
2022/03/12 11:54:30;;;;;;;7.37;3.77;;;;;;;;;;4954533;28;20543;-69
2022/03/12 11:56:56;;;;;;;10.87;4.30;;;;;;;;;;4953058;28;20114;-69
2022/03/12 11:59:21;;;;;;;11.20;4.03;;;;;;;;;;4960901;28;20138;-69
2022/03/12 12:02:05;;;;;;;11.07;3.67;;;;;;;;;;4961428;28;20027;-69
2022/03/12 12:04:32;;;;;;;9.23;4.20;;;;;;;;;;5010674;28;20052;-69
2022/03/12 12:06:59;;;;;;;9.10;3.43;;;;;;;;;;5040476;28;20444;-69
2022/03/12 12:09:24;;;;;;;10.00;4.13;;;;;;;;;;5032143;28;20029;-68
2022/03/12 12:11:49;;;;;;;9.77;4.50;;;;;;;;;;5057970;28;20084;-69
2022/03/12 12:14:16;;;;;;;9.20;4.37;;;;;;;;;;5083097;28;20059;-69
2022/03/12 12:16:43;;;;;;;8.50;4.07;;;;;;;;;;5083800;28;20028;-69
2022/03/12 12:19:09;;;;;;;9.23;4.27;;;;;;;;;;5083036;28;20099;-69
2022/03/12 12:21:34;;;;;;;8.50;4.00;;;;;;;;;;5083594;28;20104;-68
2022/03/12 12:23:59;;;;;;;9.47;4.40;;;;;;;;;;5082618;28;20549;-69
2022/03/12 12:26:24;;;;;;;7.77;3.77;;;;;;;;;;5083155;28;20032;-69
2022/03/12 12:28:51;;;;;;;7.83;3.70;;;;;;;;;;5083036;28;20060;-68
2022/03/12 12:31:22;;;;;;;10.40;3.73;;;;;;;;;;5083358;28;20031;-68
2022/03/12 12:33:47;;;;;;;8.53;4.30;;;;;;;;;;5082734;28;20059;-68
2022/03/12 12:36:22;;;;;;;10.40;4.00;;;;;;;;;;5082753;28;20059;-69
2022/03/12 12:39:06;;;;;;;9.33;3.90;;;;;;;;;;5082340;28;20087;-69
2022/03/12 12:41:52;;;;;;;8.67;3.63;;;;;;;;;;5082921;28;20577;-69
2022/03/12 12:44:32;;;;;;;8.60;3.90;;;;;;;;;;5082397;28;20142;-69
2022/03/12 12:46:58;;;;;;;7.18;3.45;;;;;;;;;;5082632;28;20027;-69
2022/03/12 12:49:31;;;;;;;8.00;3.95;;;;;;;;;;5082322;28;20028;-68
2022/03/12 12:51:58;;;;;;;6.88;3.72;;;;;;;;;;5083266;28;20027;-68
2022/03/12 12:54:47;;;;;;;9.02;3.85;;;;;;;;;;5082885;28;20563;-69
2022/03/12 12:57:13;;;;;;;7.07;3.40;;;;;;;;;;5083368;28;20017;-68
2022/03/12 12:59:41;;;;;;;7.78;3.65;;;;;;;;;;5082780;28;20039;-68
2022/03/12 13:02:06;;;;;;;8.02;3.58;;;;;;;;;;5082640;28;20120;-68
2022/03/12 13:04:49;;;;;;;7.25;3.47;;;;;;;;;;5082643;28;20052;-68
2022/03/12 13:07:21;;;;;;;7.53;3.58;;;;;;;;;;5082684;28;20146;-68
2022/03/12 13:09:47;;;;;;;10.40;3.80;;;;;;;;;;5082755;28;20024;-68
2022/03/12 13:12:12;;;;;;;6.88;3.22;;;;;;;;;;5083216;28;20020;-68
2022/03/12 13:14:42;;;;;;;6.82;3.50;;;;;;;;;;5082944;28;20024;-68
2022/03/12 13:17:07;;;;;;;9.15;4.03;;;;;;;;;;5083028;28;20047;-68
2022/03/12 13:19:33;;;;;;;7.75;3.53;;;;;;;;;;5082230;28;20117;-68
2022/03/12 13:22:06;;;;;;;8.75;3.45;;;;;;;;;;5082588;28;20098;-68
2022/03/12 13:24:42;;;;;;;7.82;3.72;;;;;;;;;;5082149;28;20076;-68
2022/03/12 13:27:22;;;;;;;7.97;3.65;;;;;;;;;;5080552;28;20024;-68
2022/03/12 13:30:03;;;;;;;7.60;4.00;;;;;;;;;;5082060;28;20036;-68
2022/03/12 13:32:29;;;;;;;7.80;3.72;;;;;;;;;;5077355;28;20101;-68
2022/03/12 13:34:55;;;;;;;6.93;3.55;;;;;;;;;;5080129;28;20039;-68
2022/03/12 13:37:20;;;;;;;6.55;3.70;;;;;;;;;;5079427;28;20376;-68
2022/03/12 13:39:45;;;;;;;6.00;3.42;;;;;;;;;;5082755;28;20042;-67
2022/03/12 13:42:13;;;;;;;7.93;3.25;;;;;;;;;;5080716;28;20077;-67
2022/03/12 13:44:43;;;;;;;8.73;3.40;;;;;;;;;;5079823;28;20035;-67
2022/03/12 13:47:10;;;;;;;7.03;3.50;;;;;;;;;;5080249;28;20019;-67
2022/03/12 13:49:40;;;;;;;6.85;3.42;;;;;;;;;;5080958;28;20085;-67
2022/03/12 13:52:05;;;;;;;7.82;4.13;;;;;;;;;;5080760;28;20031;-67
2022/03/12 13:54:30;;;;;;;8.25;4.03;;;;;;;;;;5082484;28;20024;-66
2022/03/12 13:56:58;;;;;;;7.07;3.33;;;;;;;;;;5083543;28;20082;-66
2022/03/12 13:59:29;;;;;;;10.93;3.80;;;;;;;;;;5081572;28;20019;-67
2022/03/12 14:01:56;;;;;;;7.97;3.72;;;;;;;;;;5081807;28;20024;-67
2022/03/12 14:04:25;;;;;;;7.57;3.90;;;;;;;;;;5082100;28;20709;-67
2022/03/12 14:06:50;;;;;;;7.72;3.78;;;;;;;;;;5082552;28;20107;-69
2022/03/12 14:09:17;;;;;;;7.28;3.63;;;;;;;;;;5080830;28;20436;-69
2022/03/12 14:11:47;;;;;;;8.57;4.20;;;;;;;;;;5081585;28;20020;-69
2022/03/12 14:14:13;;;;;;;6.93;3.58;;;;;;;;;;5079489;28;20688;-69
2022/03/12 14:16:41;;;;;;;7.43;3.78;;;;;;;;;;5081683;28;20355;-69
2022/03/12 14:19:08;;;;;;;9.02;4.10;;;;;;;;;;5080586;28;20461;-67
2022/03/12 14:21:37;;;;;;;7.53;3.85;;;;;;;;;;5081220;28;20114;-67
2022/03/12 14:24:22;;;;;;;9.88;4.32;;;;;;;;;;5068215;28;20027;-68
2022/03/12 14:26:48;;;;;;;12.98;4.63;;;;;;;;;;5064148;28;20078;-67
2022/03/12 14:29:13;;;;;;;6.45;3.45;;;;;;;;;;5069404;28;20040;-68
2022/03/12 14:31:38;;;;;;;10.60;4.32;;;;;;;;;;5082695;28;20042;-67
2022/03/12 14:34:05;;;;;;;7.28;3.88;;;;;;;;;;5082751;28;20032;-68
2022/03/12 14:36:32;;;;;;;7.57;3.83;;;;;;;;;;5083060;28;20105;-68
2022/03/12 14:39:00;;;;;;;10.18;4.18;;;;;;;;;;5083082;28;20388;-68
2022/03/12 14:41:26;;;;;;;7.53;3.92;;;;;;;;;;5084982;28;20020;-68
2022/03/12 14:43:53;;;;;;;7.88;3.88;;;;;;;;;;5084746;28;20023;-68